Terminal Aerodrome Forecast
Issued by NWS

Home | Current Version | Previous Version | Text Only | Print | Product List | Glossary On
Versions: 1 2 3 4 5 6 7 8 9 10 11 12 13 14
000
FTUS44 KLIX 212328
TAFMSY
TAF
KMSY 212328Z 2200/2224 VRB05KT P6SM VCTS FEW030CB BKN050
     FM220100 VRB04KT P6SM FEW045 BKN110
     FM221400 06004KT P6SM SCT035 BKN110 PROB30 2217/2220 4SM -TSRA
      BKN035CB
     FM222000 12005KT P6SM SCT040 BKN100 PROB30 2220/2224 4SM -TSRA
      BKN040CB=

USA.gov is the U.S. government's official web portal to all federal, state and local government web resources and services.